This is the latest recevied weather packets stored in our database for station/object W8LMG. If no packets are shown the sender has not sent any weather packets the latest 10 day(s).
| Time | Temp. | Humidity | Pressure | Rain* | Wind** | Luminosity | Snow |
|---|---|---|---|---|---|---|---|
| 1777291997 | 8.33° C | 79% | 1024.5 hPa | 0 mm | - | 75 W/m² | - |
| 1777291694 | 8.33° C | 80% | 1024.4 hPa | 0 mm | - | 85 W/m² | - |
| 1777291391 | 7.78° C | 81% | 1024.3 hPa | 0 mm | - | 68 W/m² | - |
| 1777291088 | 7.78° C | 80% | 1024.7 hPa | 0 mm | - | 34 W/m² | - |
| 1777290785 | 7.78° C | 81% | 1024.5 hPa | 0 mm | - | 29 W/m² | - |
| 1777290481 | 7.78° C | 81% | 1024.3 hPa | 0 mm | - | 25 W/m² | - |
| 1777290177 | 7.78° C | 81% | 1024.2 hPa | 0 mm | - | 22 W/m² | - |
| 1777289874 | 7.78° C | 82% | 1024.2 hPa | 0 mm | - | 20 W/m² | - |
| 1777289570 | 7.78° C | 82% | 1023.9 hPa | 0 mm | - | 18 W/m² | - |
| 1777289265 | 7.78° C | 82% | 1024 hPa | 0 mm | - | 15 W/m² | - |
| 1777288963 | 7.78° C | 83% | 1024 hPa | 0 mm | - | 12 W/m² | - |
| 1777288659 | 7.78° C | 82% | 1023.9 hPa | 0 mm | - | 11 W/m² | - |
| 1777288356 | 7.22° C | 82% | 1023.7 hPa | 0 mm | - | 9 W/m² | - |
| 1777288052 | 7.22° C | 82% | 1023.6 hPa | 0 mm | - | 8 W/m² | - |
| 1777287750 | 7.22° C | 83% | 1023.6 hPa | 0 mm | - | 7 W/m² | - |
| 1777287446 | 7.22° C | 84% | 1023.5 hPa | 0 mm | - | 5 W/m² | - |
| 1777287141 | 7.22° C | 83% | 1023.4 hPa | 0 mm | - | 4 W/m² | - |
| 1777286838 | 7.22° C | 82% | 1023.5 hPa | 0 mm | - | 3 W/m² | - |
| 1777286536 | 7.22° C | 83% | 1023.3 hPa | 0 mm | - | 2 W/m² | - |
| 1777286233 | 7.22° C | 83% | 1023.2 hPa | 0 mm | - | 2 W/m² | - |
| 1777285930 | 7.22° C | 83% | 1023.2 hPa | 0 mm | - | 1 W/m² | - |
| 1777285627 | 7.22° C | 84% | 1023.3 hPa | 0 mm | - | 1 W/m² | - |
| 1777285325 | 7.22° C | 83% | 1023 hPa | 0 mm | - | 0 W/m² | - |
| 1777285021 | 7.22° C | 83% | 1023 hPa | 0 mm | - | 0 W/m² | - |
| 1777284719 | 7.22° C | 84% | 1022.9 hPa | 0 mm | - | 0 W/m² | - |
* Rain latest hour (hover to see other rain measurements)
** Current wind speed in m/s (hover to see current wind gust speed)